Time;durP1;ratioP1;P1;durP2;ratioP2;P2;SDS_P1;SDS_P2;PMS_P1;PMS_P2;Temp;Humidity;BMP_temperature;BMP_pressure;BME280_temperature;BME280_humidity;BME280_pressure;Samples;Min_cycle;Max_cycle;Signal;HPM_P1;HPM_P2
2020/12/29 00:02:01;;;;;;;4.77;3.13;;;;;;;;;;5052277;28;20936;-70
2020/12/29 00:04:27;;;;;;;3.93;2.67;;;;;;;;;;5073664;28;20533;-71
2020/12/29 00:06:54;;;;;;;2.90;2.10;;;;;;;;;;5069005;28;20533;-70
2020/12/29 00:09:21;;;;;;;4.80;3.23;;;;;;;;;;5053695;28;20402;-71
2020/12/29 00:11:47;;;;;;;4.77;3.20;;;;;;;;;;5052240;28;20398;-71
2020/12/29 00:14:13;;;;;;;4.17;2.77;;;;;;;;;;5053397;28;20422;-71
2020/12/29 00:16:40;;;;;;;4.90;2.53;;;;;;;;;;5052529;28;20430;-70
2020/12/29 00:19:09;;;;;;;3.80;2.40;;;;;;;;;;5047987;28;20853;-70
2020/12/29 00:21:36;;;;;;;4.23;2.20;;;;;;;;;;5053197;28;20950;-70
2020/12/29 00:24:02;;;;;;;2.83;2.30;;;;;;;;;;5033340;28;20942;-71
2020/12/29 00:26:28;;;;;;;4.47;2.37;;;;;;;;;;5033468;28;20875;-71
2020/12/29 00:28:54;;;;;;;3.80;2.33;;;;;;;;;;5051929;28;20497;-70
2020/12/29 00:31:20;;;;;;;2.63;1.83;;;;;;;;;;5053221;28;20396;-71
2020/12/29 00:33:47;;;;;;;2.37;1.83;;;;;;;;;;5052296;28;20446;-71
2020/12/29 00:36:13;;;;;;;2.10;1.90;;;;;;;;;;5058892;28;20421;-71
2020/12/29 00:38:39;;;;;;;4.00;2.10;;;;;;;;;;5055156;28;20422;-71
2020/12/29 00:41:06;;;;;;;3.73;1.77;;;;;;;;;;5052173;28;21003;-71
2020/12/29 00:43:32;;;;;;;4.00;1.83;;;;;;;;;;5051882;28;20521;-71
2020/12/29 00:45:58;;;;;;;3.00;2.33;;;;;;;;;;5053394;28;20409;-71
2020/12/29 00:48:24;;;;;;;2.13;1.93;;;;;;;;;;5052046;28;20767;-71
2020/12/29 00:50:50;;;;;;;2.77;1.60;;;;;;;;;;5053238;28;20413;-71
2020/12/29 00:53:16;;;;;;;1.60;1.30;;;;;;;;;;5051985;28;20519;-71
2020/12/29 00:55:42;;;;;;;4.20;1.40;;;;;;;;;;5051242;28;20995;-71
2020/12/29 00:58:08;;;;;;;2.03;1.40;;;;;;;;;;5051924;28;20426;-71
2020/12/29 01:00:34;;;;;;;1.63;1.33;;;;;;;;;;5053118;28;20793;-71
2020/12/29 01:03:00;;;;;;;2.20;1.40;;;;;;;;;;5052056;28;20537;-71
2020/12/29 01:05:26;;;;;;;3.73;1.27;;;;;;;;;;5053031;28;20406;-71
2020/12/29 01:07:52;;;;;;;1.83;1.37;;;;;;;;;;5052069;28;20426;-71
2020/12/29 01:10:18;;;;;;;3.23;2.07;;;;;;;;;;5053210;28;20485;-71
2020/12/29 01:12:44;;;;;;;2.13;1.40;;;;;;;;;;5051900;28;20527;-70
2020/12/29 01:15:10;;;;;;;4.43;1.80;;;;;;;;;;5052773;28;20410;-71
2020/12/29 01:17:36;;;;;;;1.70;1.50;;;;;;;;;;5052121;28;20956;-70
2020/12/29 01:20:03;;;;;;;1.80;1.20;;;;;;;;;;5048561;28;20468;-70
2020/12/29 01:22:29;;;;;;;3.20;1.67;;;;;;;;;;5052281;28;20432;-71
2020/12/29 01:24:55;;;;;;;3.03;1.60;;;;;;;;;;5056801;28;20496;-71
2020/12/29 01:27:21;;;;;;;3.20;1.30;;;;;;;;;;5055526;28;20432;-71
2020/12/29 01:29:47;;;;;;;2.07;1.30;;;;;;;;;;5054808;28;20434;-70
2020/12/29 01:32:13;;;;;;;2.93;1.20;;;;;;;;;;5055511;28;20488;-70
2020/12/29 01:34:39;;;;;;;1.63;1.23;;;;;;;;;;5056380;28;20431;-71
2020/12/29 01:37:05;;;;;;;1.90;1.20;;;;;;;;;;5054607;28;20410;-70
2020/12/29 01:39:31;;;;;;;1.80;1.30;;;;;;;;;;5056283;28;20452;-71
2020/12/29 01:41:57;;;;;;;1.83;1.27;;;;;;;;;;5055683;28;20767;-70
2020/12/29 01:44:23;;;;;;;3.23;1.43;;;;;;;;;;5056130;28;20513;-71
2020/12/29 01:46:49;;;;;;;1.90;1.57;;;;;;;;;;5056640;28;20430;-72
2020/12/29 01:49:17;;;;;;;1.90;1.13;;;;;;;;;;5055105;28;20557;-71
2020/12/29 01:51:43;;;;;;;1.67;1.37;;;;;;;;;;5056454;28;20409;-72
2020/12/29 01:54:09;;;;;;;3.43;1.50;;;;;;;;;;5055129;28;20469;-72
2020/12/29 01:56:39;;;;;;;1.80;1.27;;;;;;;;;;5056317;28;20480;-72
2020/12/29 01:59:09;;;;;;;6.03;1.80;;;;;;;;;;5055373;28;20424;-70
2020/12/29 02:01:37;;;;;;;1.80;1.33;;;;;;;;;;5056176;28;20864;-71
2020/12/29 02:04:03;;;;;;;2.83;1.57;;;;;;;;;;5054862;28;20449;-71
2020/12/29 02:06:29;;;;;;;1.70;1.23;;;;;;;;;;5055812;28;20412;-71
2020/12/29 02:08:55;;;;;;;1.77;1.37;;;;;;;;;;5054936;28;20483;-71
2020/12/29 02:11:21;;;;;;;3.73;2.03;;;;;;;;;;5053793;28;20439;-70
2020/12/29 02:13:47;;;;;;;2.13;1.40;;;;;;;;;;5054750;28;20449;-71
2020/12/29 02:16:13;;;;;;;3.33;2.00;;;;;;;;;;5055577;28;20755;-71
2020/12/29 02:18:41;;;;;;;2.20;1.80;;;;;;;;;;5053755;28;20438;-71
2020/12/29 02:21:07;;;;;;;3.97;1.60;;;;;;;;;;5054407;28;20441;-69
2020/12/29 02:23:33;;;;;;;1.80;1.17;;;;;;;;;;5058402;28;20445;-70
2020/12/29 02:25:59;;;;;;;1.93;1.20;;;;;;;;;;5075713;28;20904;-71
2020/12/29 02:28:25;;;;;;;1.93;1.57;;;;;;;;;;5063734;28;20425;-70
2020/12/29 02:30:51;;;;;;;2.20;1.50;;;;;;;;;;5055411;28;20937;-71
2020/12/29 02:33:17;;;;;;;4.20;1.17;;;;;;;;;;5053947;28;20454;-71
2020/12/29 02:35:43;;;;;;;2.13;1.20;;;;;;;;;;5055288;28;20468;-71
2020/12/29 02:38:09;;;;;;;2.90;1.63;;;;;;;;;;5063459;28;20426;-71
2020/12/29 02:40:35;;;;;;;2.57;1.23;;;;;;;;;;5054969;28;20458;-71
2020/12/29 02:43:01;;;;;;;2.73;1.90;;;;;;;;;;5053034;28;20458;-70
2020/12/29 02:45:27;;;;;;;4.10;2.03;;;;;;;;;;5055144;28;20395;-71
2020/12/29 02:47:53;;;;;;;2.73;1.50;;;;;;;;;;5053968;28;20422;-71
2020/12/29 02:50:20;;;;;;;3.00;1.53;;;;;;;;;;5055070;28;20464;-71
2020/12/29 02:52:46;;;;;;;3.87;1.33;;;;;;;;;;5052664;28;20426;-72
2020/12/29 02:55:12;;;;;;;1.60;1.10;;;;;;;;;;5054993;28;20508;-71
2020/12/29 02:57:38;;;;;;;2.10;1.40;;;;;;;;;;5054794;28;20407;-71
2020/12/29 03:00:05;;;;;;;1.47;1.03;;;;;;;;;;5054359;28;20459;-71
2020/12/29 03:02:31;;;;;;;1.90;1.37;;;;;;;;;;5061161;28;20933;-71
2020/12/29 03:05:02;;;;;;;1.57;1.20;;;;;;;;;;5056570;28;20946;-71
2020/12/29 03:07:28;;;;;;;1.97;1.20;;;;;;;;;;5054775;28;20375;-71
2020/12/29 03:09:54;;;;;;;2.37;1.30;;;;;;;;;;5038304;28;20430;-71
2020/12/29 03:12:20;;;;;;;1.80;1.30;;;;;;;;;;5034689;28;20742;-71
2020/12/29 03:14:46;;;;;;;2.40;1.30;;;;;;;;;;5034580;28;20465;-71
2020/12/29 03:17:12;;;;;;;3.43;1.40;;;;;;;;;;5034613;28;20407;-71
2020/12/29 03:19:38;;;;;;;1.43;1.17;;;;;;;;;;5047201;28;20457;-71
2020/12/29 03:22:04;;;;;;;3.83;1.10;;;;;;;;;;5053451;28;20488;-70
2020/12/29 03:24:30;;;;;;;2.23;1.40;;;;;;;;;;5050668;28;20523;-70
2020/12/29 03:26:56;;;;;;;2.80;1.30;;;;;;;;;;5054574;28;20398;-71
2020/12/29 03:29:22;;;;;;;2.87;1.40;;;;;;;;;;5053480;28;20426;-71
2020/12/29 03:31:48;;;;;;;2.33;1.13;;;;;;;;;;5054437;28;20390;-71
2020/12/29 03:34:36;;;;;;;2.07;1.20;;;;;;;;;;5053183;28;20507;-71
2020/12/29 03:37:03;;;;;;;2.37;1.10;;;;;;;;;;5054506;28;20390;-71
2020/12/29 03:39:28;;;;;;;2.37;1.23;;;;;;;;;;5050534;28;20462;-70
2020/12/29 03:41:54;;;;;;;1.50;1.00;;;;;;;;;;5064831;28;20453;-71
2020/12/29 03:44:20;;;;;;;3.17;1.33;;;;;;;;;;5053452;28;20906;-71
2020/12/29 03:46:46;;;;;;;1.67;1.23;;;;;;;;;;5052793;28;20418;-70
2020/12/29 03:49:12;;;;;;;2.47;1.23;;;;;;;;;;5053903;28;20440;-71
2020/12/29 03:51:38;;;;;;;1.70;1.10;;;;;;;;;;5052777;28;20479;-70
2020/12/29 03:54:04;;;;;;;2.10;1.20;;;;;;;;;;5053614;28;20938;-71
2020/12/29 03:56:30;;;;;;;1.33;1.00;;;;;;;;;;5053159;28;20460;-70
2020/12/29 03:58:56;;;;;;;2.03;1.27;;;;;;;;;;5052516;28;21131;-71
2020/12/29 04:01:22;;;;;;;1.57;1.00;;;;;;;;;;5053639;28;20438;-71
2020/12/29 04:03:48;;;;;;;1.70;1.37;;;;;;;;;;5051970;28;20540;-71
2020/12/29 04:06:15;;;;;;;1.40;1.10;;;;;;;;;;5053618;28;20424;-71
2020/12/29 04:08:41;;;;;;;2.10;1.40;;;;;;;;;;5052460;28;20471;-71
2020/12/29 04:11:07;;;;;;;1.80;1.70;;;;;;;;;;5053494;28;20402;-71
2020/12/29 04:13:33;;;;;;;1.60;1.30;;;;;;;;;;5047586;28;20442;-71
2020/12/29 04:15:59;;;;;;;3.53;1.30;;;;;;;;;;5033526;28;20774;-71
2020/12/29 04:18:25;;;;;;;2.37;1.43;;;;;;;;;;5046310;28;20932;-71
2020/12/29 04:20:51;;;;;;;3.60;1.30;;;;;;;;;;5053562;28;20449;-71
2020/12/29 04:23:17;;;;;;;1.60;1.30;;;;;;;;;;5052108;28;20489;-71
2020/12/29 04:25:43;;;;;;;2.37;1.40;;;;;;;;;;5049349;28;20422;-70
2020/12/29 04:28:09;;;;;;;3.60;2.10;;;;;;;;;;5052290;28;20802;-70
2020/12/29 04:30:35;;;;;;;2.57;1.60;;;;;;;;;;5051845;28;20521;-71
2020/12/29 04:33:01;;;;;;;2.80;1.53;;;;;;;;;;5051943;28;20990;-71
2020/12/29 04:35:28;;;;;;;3.10;1.60;;;;;;;;;;5053153;28;20411;-71
2020/12/29 04:37:54;;;;;;;2.63;1.20;;;;;;;;;;5052156;28;20436;-71
2020/12/29 04:40:20;;;;;;;2.60;1.50;;;;;;;;;;5053114;28;20446;-71
2020/12/29 04:42:46;;;;;;;3.00;1.43;;;;;;;;;;5051978;28;20468;-70
2020/12/29 04:45:13;;;;;;;3.00;1.60;;;;;;;;;;5052469;28;20409;-71
2020/12/29 04:47:39;;;;;;;2.03;1.30;;;;;;;;;;5052106;28;20421;-70
2020/12/29 04:50:05;;;;;;;2.00;1.13;;;;;;;;;;5053005;28;20414;-71
2020/12/29 04:52:31;;;;;;;1.97;1.50;;;;;;;;;;5052065;28;20434;-70
2020/12/29 04:54:58;;;;;;;2.07;1.50;;;;;;;;;;5052877;28;20532;-71
2020/12/29 04:57:24;;;;;;;2.23;1.30;;;;;;;;;;5068986;28;20573;-70
2020/12/29 04:59:51;;;;;;;2.50;1.50;;;;;;;;;;5057040;28;20807;-71
2020/12/29 05:02:17;;;;;;;1.70;1.10;;;;;;;;;;5056025;28;20412;-70
2020/12/29 05:04:43;;;;;;;2.10;1.23;;;;;;;;;;5057296;28;20430;-71
2020/12/29 05:07:09;;;;;;;1.93;1.20;;;;;;;;;;5056091;28;20438;-70
2020/12/29 05:09:35;;;;;;;2.10;1.50;;;;;;;;;;5056818;28;20418;-71
2020/12/29 05:12:01;;;;;;;1.67;1.37;;;;;;;;;;5057248;28;20750;-71
2020/12/29 05:14:28;;;;;;;1.83;1.33;;;;;;;;;;5055773;28;20449;-71
2020/12/29 05:16:55;;;;;;;2.57;1.80;;;;;;;;;;5054491;28;20430;-71
2020/12/29 05:19:21;;;;;;;3.87;1.33;;;;;;;;;;5053918;28;20422;-71
2020/12/29 05:21:48;;;;;;;1.70;1.40;;;;;;;;;;5056943;28;20910;-71
2020/12/29 05:24:14;;;;;;;5.30;2.00;;;;;;;;;;5055726;28;20453;-71
2020/12/29 05:26:40;;;;;;;2.00;1.50;;;;;;;;;;5047808;28;20431;-71
2020/12/29 05:29:07;;;;;;;2.83;1.53;;;;;;;;;;5050896;28;20945;-71
2020/12/29 05:31:34;;;;;;;1.43;1.13;;;;;;;;;;5056715;28;20906;-71
2020/12/29 05:34:00;;;;;;;1.87;1.43;;;;;;;;;;5054982;28;20445;-71
2020/12/29 05:36:27;;;;;;;1.40;1.00;;;;;;;;;;5056500;28;20860;-71
2020/12/29 05:38:56;;;;;;;1.70;1.40;;;;;;;;;;5055734;28;20434;-71
2020/12/29 05:41:23;;;;;;;1.93;1.30;;;;;;;;;;5056344;28;20452;-71
2020/12/29 05:44:02;;;;;;;1.80;1.40;;;;;;;;;;5055689;28;20445;-71
2020/12/29 05:46:29;;;;;;;1.83;1.40;;;;;;;;;;5056575;28;20390;-71
2020/12/29 05:48:55;;;;;;;2.23;1.30;;;;;;;;;;5055500;28;20426;-71
2020/12/29 05:51:22;;;;;;;1.70;1.17;;;;;;;;;;5058328;28;20433;-71
2020/12/29 05:53:48;;;;;;;1.67;1.30;;;;;;;;;;5067770;28;20469;-71
2020/12/29 05:56:14;;;;;;;1.80;1.30;;;;;;;;;;5056591;28;20409;-72
2020/12/29 05:58:42;;;;;;;2.90;1.70;;;;;;;;;;5055733;28;20430;-71
2020/12/29 06:01:09;;;;;;;5.40;1.50;;;;;;;;;;5055991;28;20460;-71
2020/12/29 06:03:35;;;;;;;1.60;1.10;;;;;;;;;;5054878;28;20493;-71
2020/12/29 06:06:04;;;;;;;2.00;1.70;;;;;;;;;;5055950;28;20429;-71
2020/12/29 06:08:30;;;;;;;1.50;1.00;;;;;;;;;;5054203;28;20825;-71
2020/12/29 06:11:04;;;;;;;1.80;1.27;;;;;;;;;;5056055;28;20501;-71
2020/12/29 06:13:33;;;;;;;1.60;1.30;;;;;;;;;;5054782;28;20448;-71
2020/12/29 06:16:02;;;;;;;2.60;1.40;;;;;;;;;;5055733;28;20421;-71
2020/12/29 06:18:36;;;;;;;1.37;1.07;;;;;;;;;;5054604;28;20437;-70
2020/12/29 06:21:06;;;;;;;1.67;1.10;;;;;;;;;;5055550;28;20446;-71
2020/12/29 06:23:50;;;;;;;2.37;1.17;;;;;;;;;;5054463;28;20499;-70
2020/12/29 06:26:19;;;;;;;2.07;1.27;;;;;;;;;;5055733;28;20406;-71
2020/12/29 06:28:49;;;;;;;2.80;1.77;;;;;;;;;;5051251;28;20419;-71
2020/12/29 06:31:20;;;;;;;2.50;1.43;;;;;;;;;;5055717;28;20467;-71
2020/12/29 06:33:47;;;;;;;2.40;1.23;;;;;;;;;;5054393;28;20453;-71
2020/12/29 06:36:15;;;;;;;1.30;1.00;;;;;;;;;;5055308;28;20406;-71
2020/12/29 06:38:42;;;;;;;1.63;1.50;;;;;;;;;;5063363;28;20422;-71
2020/12/29 06:41:08;;;;;;;1.97;1.30;;;;;;;;;;5055171;28;20548;-71
2020/12/29 06:43:34;;;;;;;2.10;1.40;;;;;;;;;;5052009;28;20449;-70
2020/12/29 06:46:13;;;;;;;1.87;1.43;;;;;;;;;;5035317;28;20415;-71
2020/12/29 06:48:39;;;;;;;2.33;1.27;;;;;;;;;;5037845;28;20860;-71
2020/12/29 06:51:14;;;;;;;2.33;1.30;;;;;;;;;;5055077;28;20409;-71
2020/12/29 06:53:41;;;;;;;1.40;1.07;;;;;;;;;;5054079;28;20955;-71
2020/12/29 06:56:27;;;;;;;1.70;1.10;;;;;;;;;;5055224;28;20421;-71
2020/12/29 06:58:53;;;;;;;1.70;1.40;;;;;;;;;;5053333;28;20440;-71
2020/12/29 07:01:26;;;;;;;2.10;1.30;;;;;;;;;;5055260;28;20540;-71
2020/12/29 07:04:04;;;;;;;2.20;1.10;;;;;;;;;;5053959;28;20817;-71
2020/12/29 07:06:31;;;;;;;1.70;1.20;;;;;;;;;;5054889;28;20402;-71
2020/12/29 07:09:01;;;;;;;2.30;1.40;;;;;;;;;;5053957;28;20509;-70
2020/12/29 07:11:27;;;;;;;2.60;1.30;;;;;;;;;;5054695;28;20439;-71
2020/12/29 07:13:53;;;;;;;1.50;1.00;;;;;;;;;;5053844;28;20512;-71
2020/12/29 07:16:25;;;;;;;5.57;2.10;;;;;;;;;;5054703;28;20742;-71
2020/12/29 07:18:53;;;;;;;2.03;1.20;;;;;;;;;;5053378;28;20836;-71
2020/12/29 07:21:26;;;;;;;1.80;1.37;;;;;;;;;;5054079;28;20545;-71
2020/12/29 07:23:53;;;;;;;2.17;1.40;;;;;;;;;;5062711;28;20817;-71
2020/12/29 07:26:20;;;;;;;1.50;1.13;;;;;;;;;;5054455;28;20765;-71
2020/12/29 07:28:46;;;;;;;1.93;1.27;;;;;;;;;;5051818;28;20438;-71
2020/12/29 07:31:14;;;;;;;4.00;1.20;;;;;;;;;;5055674;28;20491;-71
2020/12/29 07:33:48;;;;;;;3.50;1.77;;;;;;;;;;5054575;28;20434;-71
2020/12/29 07:36:17;;;;;;;1.60;1.10;;;;;;;;;;5053815;28;20437;-71
2020/12/29 07:38:46;;;;;;;3.10;1.40;;;;;;;;;;5054336;28;20409;-71
2020/12/29 07:41:13;;;;;;;2.17;1.43;;;;;;;;;;5053194;28;20461;-71
2020/12/29 07:43:39;;;;;;;1.80;1.20;;;;;;;;;;5054420;28;20503;-71
2020/12/29 07:46:05;;;;;;;1.90;1.57;;;;;;;;;;5053227;28;20433;-71
2020/12/29 07:48:31;;;;;;;3.00;1.80;;;;;;;;;;5053404;28;20402;-71
2020/12/29 07:51:00;;;;;;;2.47;1.40;;;;;;;;;;5053160;28;20442;-71
2020/12/29 07:53:26;;;;;;;3.40;2.10;;;;;;;;;;5053459;28;20474;-71
2020/12/29 07:55:52;;;;;;;5.00;1.70;;;;;;;;;;5051428;28;20444;-71
2020/12/29 07:58:18;;;;;;;2.40;1.63;;;;;;;;;;5052451;28;20788;-70
2020/12/29 08:00:44;;;;;;;2.40;2.10;;;;;;;;;;5059474;28;20445;-70
2020/12/29 08:03:12;;;;;;;2.50;1.53;;;;;;;;;;5053899;28;20453;-71
2020/12/29 08:05:38;;;;;;;1.97;1.60;;;;;;;;;;5052141;28;20857;-70
2020/12/29 08:08:10;;;;;;;3.30;1.87;;;;;;;;;;5052512;28;20469;-70
2020/12/29 08:10:38;;;;;;;2.87;2.23;;;;;;;;;;5051755;28;20441;-70
2020/12/29 08:13:05;;;;;;;3.63;1.93;;;;;;;;;;5053591;28;20433;-71
2020/12/29 08:15:32;;;;;;;1.87;1.30;;;;;;;;;;5052851;28;20462;-72
2020/12/29 08:18:11;;;;;;;1.70;1.20;;;;;;;;;;5053459;28;20428;-69
2020/12/29 08:20:57;;;;;;;4.10;2.50;;;;;;;;;;5052149;28;20448;-69
2020/12/29 08:23:26;;;;;;;3.73;1.73;;;;;;;;;;5052891;28;20438;-71
2020/12/29 08:26:00;;;;;;;3.17;1.57;;;;;;;;;;5052032;28;20422;-71
2020/12/29 08:28:26;;;;;;;2.37;1.10;;;;;;;;;;5053260;28;20411;-70
2020/12/29 08:30:53;;;;;;;3.63;1.40;;;;;;;;;;5048297;28;20430;-70
2020/12/29 08:33:21;;;;;;;3.83;1.30;;;;;;;;;;5052393;28;20576;-69
2020/12/29 08:35:49;;;;;;;1.97;1.30;;;;;;;;;;5060141;28;20567;-71
2020/12/29 08:38:15;;;;;;;1.50;1.20;;;;;;;;;;5056617;28;20422;-70
2020/12/29 08:40:45;;;;;;;2.27;1.40;;;;;;;;;;5052627;28;20458;-70
2020/12/29 08:43:15;;;;;;;1.87;1.27;;;;;;;;;;5067187;28;21035;-68
2020/12/29 08:45:41;;;;;;;2.40;1.33;;;;;;;;;;5051281;28;20492;-70
2020/12/29 08:48:07;;;;;;;4.40;1.77;;;;;;;;;;5053416;28;20406;-69
2020/12/29 08:50:34;;;;;;;5.13;1.30;;;;;;;;;;5051889;28;20417;-69
2020/12/29 08:53:04;;;;;;;1.80;1.40;;;;;;;;;;5052591;28;20433;-72
2020/12/29 08:55:31;;;;;;;2.90;1.30;;;;;;;;;;5041296;28;20433;-69
2020/12/29 08:57:58;;;;;;;2.90;1.00;;;;;;;;;;5051334;28;20406;-69
2020/12/29 09:00:25;;;;;;;2.67;1.60;;;;;;;;;;5106756;22;20476;-66
2020/12/29 09:02:51;;;;;;;2.10;1.37;;;;;;;;;;5093023;28;20393;-66
2020/12/29 09:05:21;;;;;;;1.80;0.97;;;;;;;;;;5091636;28;20413;-65
2020/12/29 09:07:47;;;;;;;2.90;1.47;;;;;;;;;;5092692;28;20411;-65
2020/12/29 09:10:15;;;;;;;2.17;1.57;;;;;;;;;;5090946;28;20488;-66
2020/12/29 09:12:41;;;;;;;2.40;1.00;;;;;;;;;;5093035;28;20393;-65
2020/12/29 09:15:08;;;;;;;8.10;1.53;;;;;;;;;;5084742;28;20841;-66
2020/12/29 09:17:35;;;;;;;1.40;0.90;;;;;;;;;;5073829;28;20948;-65
2020/12/29 09:20:16;;;;;;;1.40;0.97;;;;;;;;;;5079710;28;20994;-64
2020/12/29 09:22:49;;;;;;;2.43;1.27;;;;;;;;;;5069679;28;20414;-66
2020/12/29 09:25:25;;;;;;;2.37;1.23;;;;;;;;;;5086868;28;20400;-66
2020/12/29 09:28:07;;;;;;;1.40;0.80;;;;;;;;;;5091598;28;20755;-65
2020/12/29 09:30:33;;;;;;;2.70;1.20;;;;;;;;;;5086562;28;20437;-65
2020/12/29 09:32:59;;;;;;;1.73;1.07;;;;;;;;;;5073253;28;20511;-65
2020/12/29 09:35:28;;;;;;;1.97;1.20;;;;;;;;;;5075057;28;20440;-62
2020/12/29 09:37:57;;;;;;;1.60;1.03;;;;;;;;;;5079796;28;20432;-64
2020/12/29 09:40:24;;;;;;;3.37;1.37;;;;;;;;;;5084631;28;20456;-68
2020/12/29 09:42:50;;;;;;;2.27;1.27;;;;;;;;;;5090037;28;20795;-66
2020/12/29 09:45:17;;;;;;;4.03;1.40;;;;;;;;;;5091423;28;20423;-66
2020/12/29 09:47:43;;;;;;;3.47;1.67;;;;;;;;;;5092735;28;20903;-64
2020/12/29 09:50:09;;;;;;;2.90;1.03;;;;;;;;;;5081847;28;20448;-65
2020/12/29 09:52:35;;;;;;;2.00;1.30;;;;;;;;;;5084795;28;20456;-65
2020/12/29 09:55:03;;;;;;;2.10;1.80;;;;;;;;;;5088620;28;20455;-66
2020/12/29 09:57:29;;;;;;;1.77;1.00;;;;;;;;;;5088228;28;20451;-67
2020/12/29 09:59:55;;;;;;;1.70;1.20;;;;;;;;;;5077304;28;20303;-69
2020/12/29 10:02:21;;;;;;;2.77;1.30;;;;;;;;;;5067079;28;20474;-66
2020/12/29 10:04:47;;;;;;;1.90;1.20;;;;;;;;;;5073810;28;20414;-67
2020/12/29 10:07:13;;;;;;;2.00;1.30;;;;;;;;;;5071245;28;20449;-67
2020/12/29 10:09:39;;;;;;;1.50;1.00;;;;;;;;;;5070062;28;20453;-67
2020/12/29 10:12:05;;;;;;;1.90;1.17;;;;;;;;;;5068560;28;20496;-66
2020/12/29 10:14:31;;;;;;;3.30;1.40;;;;;;;;;;5075378;28;20409;-67
2020/12/29 10:16:58;;;;;;;1.70;1.10;;;;;;;;;;5075794;28;20428;-67
2020/12/29 10:19:24;;;;;;;3.30;1.30;;;;;;;;;;5074624;28;20461;-67
2020/12/29 10:21:51;;;;;;;2.70;1.20;;;;;;;;;;5074033;28;20496;-67
2020/12/29 10:24:17;;;;;;;4.20;1.20;;;;;;;;;;5073931;28;20448;-66
2020/12/29 10:26:43;;;;;;;1.93;1.27;;;;;;;;;;5073485;28;20448;-66
2020/12/29 10:29:09;;;;;;;2.70;1.23;;;;;;;;;;5065437;28;20409;-66
2020/12/29 10:31:35;;;;;;;1.60;0.90;;;;;;;;;;5073626;28;20411;-66
2020/12/29 10:34:02;;;;;;;1.60;1.07;;;;;;;;;;5068135;28;20430;-66
2020/12/29 10:36:33;;;;;;;3.10;1.30;;;;;;;;;;5073955;28;20932;-66
2020/12/29 10:38:59;;;;;;;5.00;1.53;;;;;;;;;;5073782;28;20497;-65
2020/12/29 10:41:28;;;;;;;2.07;1.23;;;;;;;;;;5074485;28;20824;-65
2020/12/29 10:43:54;;;;;;;2.67;1.43;;;;;;;;;;5065034;28;20444;-67
2020/12/29 10:46:20;;;;;;;2.17;1.30;;;;;;;;;;5068923;28;21161;-67
2020/12/29 10:48:46;;;;;;;2.60;1.30;;;;;;;;;;5068471;28;20471;-65
2020/12/29 10:51:17;;;;;;;4.27;1.63;;;;;;;;;;5074465;28;20441;-66
2020/12/29 10:53:43;;;;;;;1.87;1.07;;;;;;;;;;5074836;28;20439;-67
2020/12/29 10:56:09;;;;;;;3.23;1.57;;;;;;;;;;5073901;28;20413;-66
2020/12/29 10:58:35;;;;;;;1.83;1.20;;;;;;;;;;5074846;28;20448;-67
2020/12/29 11:01:01;;;;;;;5.03;1.47;;;;;;;;;;5073738;28;20523;-67
2020/12/29 11:03:27;;;;;;;1.80;1.03;;;;;;;;;;5074601;28;20561;-68
2020/12/29 11:05:53;;;;;;;2.47;1.40;;;;;;;;;;5074533;28;20478;-69
2020/12/29 11:08:19;;;;;;;1.67;1.23;;;;;;;;;;5076042;28;20420;-68
2020/12/29 11:10:45;;;;;;;4.87;1.83;;;;;;;;;;5076601;28;20434;-67
2020/12/29 11:13:11;;;;;;;3.20;1.10;;;;;;;;;;5080355;28;20777;-68
2020/12/29 11:15:37;;;;;;;2.23;1.20;;;;;;;;;;5078937;28;20456;-67
2020/12/29 11:18:03;;;;;;;2.40;1.00;;;;;;;;;;5080519;28;20430;-67
2020/12/29 11:20:29;;;;;;;2.30;1.67;;;;;;;;;;5072453;28;20465;-68
2020/12/29 11:22:55;;;;;;;2.40;1.40;;;;;;;;;;5081533;28;20472;-68
2020/12/29 11:25:21;;;;;;;1.90;1.10;;;;;;;;;;5088242;28;20499;-68
2020/12/29 11:27:47;;;;;;;4.73;1.57;;;;;;;;;;5074500;28;20423;-69
2020/12/29 11:30:13;;;;;;;3.33;1.40;;;;;;;;;;5079919;28;20445;-68
2020/12/29 11:32:39;;;;;;;3.33;1.20;;;;;;;;;;5076800;28;20939;-67
2020/12/29 11:35:05;;;;;;;1.87;1.27;;;;;;;;;;5087486;28;20432;-67
2020/12/29 11:37:31;;;;;;;2.33;1.67;;;;;;;;;;5080366;28;20424;-69
2020/12/29 11:39:57;;;;;;;3.93;1.17;;;;;;;;;;5073441;28;20510;-68
2020/12/29 11:42:23;;;;;;;2.63;1.40;;;;;;;;;;5084245;28;20507;-69
2020/12/29 11:44:49;;;;;;;1.73;1.07;;;;;;;;;;5089699;28;20519;-71
2020/12/29 11:47:15;;;;;;;2.17;1.23;;;;;;;;;;5087758;28;20935;-67
2020/12/29 11:49:41;;;;;;;2.17;1.33;;;;;;;;;;5086119;28;20439;-67
2020/12/29 11:52:07;;;;;;;2.10;1.70;;;;;;;;;;5091601;28;20457;-69
2020/12/29 11:54:34;;;;;;;3.10;1.30;;;;;;;;;;5077059;28;20425;-70
2020/12/29 11:57:00;;;;;;;2.80;1.10;;;;;;;;;;5088996;28;20416;-69
2020/12/29 11:59:26;;;;;;;6.10;1.57;;;;;;;;;;5079138;28;20464;-69
2020/12/29 12:01:52;;;;;;;2.13;1.30;;;;;;;;;;5073531;28;20445;-68
2020/12/29 12:04:18;;;;;;;1.80;1.40;;;;;;;;;;5073042;28;20425;-68
2020/12/29 12:06:48;;;;;;;4.00;1.50;;;;;;;;;;5080889;28;20413;-71
2020/12/29 12:09:15;;;;;;;3.77;1.93;;;;;;;;;;5082506;28;20436;-70
2020/12/29 12:11:41;;;;;;;2.70;1.00;;;;;;;;;;5082115;28;20413;-67
2020/12/29 12:14:07;;;;;;;3.20;1.53;;;;;;;;;;5083088;28;20432;-70
2020/12/29 12:16:37;;;;;;;3.33;1.40;;;;;;;;;;5080495;28;20497;-70
2020/12/29 12:19:03;;;;;;;9.70;1.43;;;;;;;;;;5071072;28;20516;-69
2020/12/29 12:21:30;;;;;;;1.80;1.10;;;;;;;;;;5084718;28;20447;-70
2020/12/29 12:23:56;;;;;;;1.90;1.10;;;;;;;;;;5087095;28;20422;-70
2020/12/29 12:26:22;;;;;;;2.10;1.30;;;;;;;;;;5085173;28;20416;-70
2020/12/29 12:28:48;;;;;;;2.00;1.10;;;;;;;;;;5072729;28;20421;-69
2020/12/29 12:31:14;;;;;;;3.17;1.20;;;;;;;;;;5086168;28;20785;-68
2020/12/29 12:33:41;;;;;;;1.90;1.30;;;;;;;;;;5090010;28;20400;-67
2020/12/29 12:36:07;;;;;;;2.30;1.27;;;;;;;;;;5074081;28;20655;-68
2020/12/29 12:38:34;;;;;;;4.03;1.30;;;;;;;;;;5068686;28;20429;-67
2020/12/29 12:41:00;;;;;;;3.87;1.53;;;;;;;;;;5084006;28;20472;-65
2020/12/29 12:43:26;;;;;;;4.77;1.53;;;;;;;;;;5086522;28;20498;-66
2020/12/29 12:45:52;;;;;;;2.30;1.40;;;;;;;;;;5071907;28;20867;-64
2020/12/29 12:48:18;;;;;;;2.23;1.20;;;;;;;;;;5075852;28;20437;-67
2020/12/29 12:50:44;;;;;;;2.00;1.60;;;;;;;;;;5075165;28;20541;-67
2020/12/29 12:53:10;;;;;;;3.13;1.80;;;;;;;;;;5073319;28;20417;-67
2020/12/29 12:55:36;;;;;;;1.90;1.00;;;;;;;;;;5079618;28;20983;-67
2020/12/29 12:58:05;;;;;;;3.63;1.00;;;;;;;;;;5092801;28;20432;-68
2020/12/29 13:00:31;;;;;;;1.97;1.13;;;;;;;;;;5081084;28;20471;-68
2020/12/29 13:02:57;;;;;;;7.37;1.30;;;;;;;;;;5078999;28;20417;-67
2020/12/29 13:05:23;;;;;;;2.57;1.40;;;;;;;;;;5061485;28;20436;-68
2020/12/29 13:07:49;;;;;;;3.60;1.03;;;;;;;;;;5079690;28;20477;-67
2020/12/29 13:10:15;;;;;;;1.60;1.23;;;;;;;;;;5084320;28;20439;-68
2020/12/29 13:12:41;;;;;;;1.67;1.00;;;;;;;;;;5083208;28;20426;-66
2020/12/29 13:15:07;;;;;;;1.53;1.00;;;;;;;;;;5075166;28;20448;-66
2020/12/29 13:17:33;;;;;;;2.60;1.10;;;;;;;;;;5079944;28;20420;-65
2020/12/29 13:19:59;;;;;;;1.80;1.10;;;;;;;;;;5081923;28;20461;-66
2020/12/29 13:22:26;;;;;;;1.77;0.97;;;;;;;;;;5088383;28;20416;-66
2020/12/29 13:24:52;;;;;;;2.47;1.20;;;;;;;;;;5080224;28;20633;-67
2020/12/29 13:27:19;;;;;;;1.70;1.20;;;;;;;;;;5076442;28;20783;-69
2020/12/29 13:29:45;;;;;;;3.10;1.13;;;;;;;;;;5075996;28;20438;-67
2020/12/29 13:32:11;;;;;;;4.70;1.60;;;;;;;;;;5076721;28;20412;-67
2020/12/29 13:34:39;;;;;;;2.30;1.17;;;;;;;;;;5076051;28;20503;-67
2020/12/29 13:37:06;;;;;;;4.40;1.10;;;;;;;;;;5076530;28;20459;-69
2020/12/29 13:39:32;;;;;;;1.90;1.30;;;;;;;;;;5072124;28;20440;-67
2020/12/29 13:41:58;;;;;;;2.10;1.00;;;;;;;;;;5075448;28;20498;-67
2020/12/29 13:44:24;;;;;;;3.50;1.50;;;;;;;;;;5075673;28;20431;-67
2020/12/29 13:46:50;;;;;;;1.83;1.10;;;;;;;;;;5076505;28;20487;-66
2020/12/29 13:49:16;;;;;;;3.80;1.80;;;;;;;;;;5075521;28;20401;-68
2020/12/29 13:51:43;;;;;;;3.23;1.57;;;;;;;;;;5075970;28;20401;-67
2020/12/29 13:54:09;;;;;;;1.90;1.10;;;;;;;;;;5074178;28;20433;-67
2020/12/29 13:56:35;;;;;;;3.83;1.63;;;;;;;;;;5075497;28;20989;-66
2020/12/29 13:59:01;;;;;;;1.40;0.90;;;;;;;;;;5074567;28;20948;-66
2020/12/29 14:01:27;;;;;;;3.47;1.17;;;;;;;;;;5075637;28;20461;-67
2020/12/29 14:03:53;;;;;;;2.47;1.60;;;;;;;;;;5076172;28;20401;-67
2020/12/29 14:06:19;;;;;;;1.97;1.20;;;;;;;;;;5075447;28;20944;-67
2020/12/29 14:08:45;;;;;;;2.10;1.00;;;;;;;;;;5075889;28;20762;-67
2020/12/29 14:11:13;;;;;;;2.60;1.30;;;;;;;;;;5075061;28;20460;-67
2020/12/29 14:13:39;;;;;;;2.57;1.10;;;;;;;;;;5090045;28;20424;-67
2020/12/29 14:16:05;;;;;;;3.33;1.70;;;;;;;;;;5079599;28;20494;-67
2020/12/29 14:18:32;;;;;;;5.27;1.70;;;;;;;;;;5075864;28;20488;-67
2020/12/29 14:21:02;;;;;;;4.33;1.20;;;;;;;;;;5074922;28;20514;-66
2020/12/29 14:23:28;;;;;;;2.07;1.50;;;;;;;;;;5075777;28;20406;-67
2020/12/29 14:25:54;;;;;;;2.90;1.30;;;;;;;;;;5074892;28;20507;-67
2020/12/29 14:28:20;;;;;;;1.60;1.17;;;;;;;;;;5075532;28;20764;-67
2020/12/29 14:30:47;;;;;;;4.83;1.20;;;;;;;;;;5073807;28;20477;-67
2020/12/29 14:33:13;;;;;;;2.27;1.20;;;;;;;;;;5075281;28;20969;-66
2020/12/29 14:35:39;;;;;;;4.37;1.53;;;;;;;;;;5074851;28;20421;-66
2020/12/29 14:38:05;;;;;;;2.67;1.50;;;;;;;;;;5074604;28;20455;-68
2020/12/29 14:40:31;;;;;;;1.80;0.97;;;;;;;;;;5082020;28;20957;-68
2020/12/29 14:42:57;;;;;;;2.00;1.30;;;;;;;;;;5073052;28;20440;-66